Back to Top

Language: 

My Weather Underground Personal Weather Station Historical Data with Graphs...

Delerius Weather Station Historical Data
Daily Summary for January 8, 2017 Units:  English    Metric   Both
« Previous Day
Next Day »
Daily Weekly Monthly Yearly Custom
  High: Low: Average:
Temperature: 48.6 °F 40.8 °F 44.1 °F
Dew Point: 47.0 °F 39.2 °F 42.7 °F
Humidity: 97 % 90 % 95 %
Wind Speed: 7.0 mph 0.0 mph 1.1 mph
Wind Gust: 9.0 mph - -
Wind:- - West
Pressure: 30.48 in 30.29 in -
Precipitation: 0.00 in    
Historical Graphs
 
 
Tabular Data for January 8, 2017
Time Temperature Dew Point Pressure Wind Wind Speed Wind Gust Humidity Rainfall Rate (Hourly) solar Conditions
00:00 41.6 °F 40.5 °F 30.46 in WNW 2.0 mph 2.0 mph 96 % 0.00 in 0 W/m2
00:05 41.5 °F 40.4 °F 30.46 in WNW 3.0 mph 4.0 mph 96 % 0.00 in 0 W/m2
00:15 41.5 °F 40.4 °F 30.46 in WNW 3.0 mph 4.0 mph 96 % 0.00 in 0 W/m2
00:20 41.4 °F 40.3 °F 30.46 in WNW 2.0 mph 2.0 mph 96 % 0.00 in 0 W/m2
00:25 41.4 °F 40.3 °F 30.46 in WNW 2.0 mph 3.0 mph 96 % 0.00 in 0 W/m2
00:30 41.3 °F 40.2 °F 30.46 in WNW 2.0 mph 2.0 mph 96 % 0.00 in 0 W/m2
00:35 41.3 °F 40.2 °F 30.46 in WNW 2.0 mph 3.0 mph 96 % 0.00 in 0 W/m2
00:45 41.2 °F 40.1 °F 30.45 in WNW 3.0 mph 3.0 mph 96 % 0.00 in 0 W/m2
00:50 41.3 °F 40.2 °F 30.45 in WNW 4.0 mph 4.0 mph 96 % 0.00 in 0 W/m2
00:55 41.4 °F 40.6 °F 30.45 in WNW 4.0 mph 4.0 mph 97 % 0.00 in 0 W/m2
01:00 41.7 °F 40.9 °F 30.45 in WNW 3.0 mph 4.0 mph 97 % 0.00 in 0 W/m2
01:05 42.0 °F 41.2 °F 30.45 in WNW 3.0 mph 5.0 mph 97 % 0.00 in 0 W/m2
01:10 42.3 °F 41.5 °F 30.45 in WNW 4.0 mph 4.0 mph 97 % 0.00 in 0 W/m2
01:15 42.5 °F 41.7 °F 30.45 in WNW 3.0 mph 5.0 mph 97 % 0.00 in 0 W/m2
01:25 42.9 °F 42.1 °F 30.44 in WNW 1.0 mph 5.0 mph 97 % 0.00 in 0 W/m2
01:30 42.9 °F 42.1 °F 30.44 in WNW 2.0 mph 5.0 mph 97 % 0.00 in 0 W/m2
01:35 43.1 °F 42.3 °F 30.44 in WNW 3.0 mph 7.0 mph 97 % 0.00 in 0 W/m2
01:40 43.4 °F 42.6 °F 30.44 in WNW 5.0 mph 6.0 mph 97 % 0.00 in 0 W/m2
01:45 43.9 °F 43.1 °F 30.44 in NW 5.0 mph 6.0 mph 97 % 0.00 in 0 W/m2
01:55 44.5 °F 43.7 °F 30.44 in NW 3.0 mph 5.0 mph 97 % 0.00 in 0 W/m2
02:00 44.7 °F 43.9 °F 30.44 in NW 2.0 mph 5.0 mph 97 % 0.00 in 0 W/m2
02:05 44.9 °F 44.1 °F 30.44 in NW 2.0 mph 5.0 mph 97 % 0.00 in 0 W/m2
02:10 45.0 °F 44.2 °F 30.44 in NW 2.0 mph 5.0 mph 97 % 0.00 in 0 W/m2
02:15 45.2 °F 44.4 °F 30.44 in NW 3.0 mph 5.0 mph 97 % 0.00 in 0 W/m2
02:20 45.4 °F 44.6 °F 30.44 in NW 4.0 mph 5.0 mph 97 % 0.00 in 0 W/m2
02:25 45.5 °F 44.4 °F 30.44 in NW 4.0 mph 5.0 mph 96 % 0.00 in 0 W/m2
02:30 45.6 °F 44.5 °F 30.44 in WNW 4.0 mph 4.0 mph 96 % 0.00 in 0 W/m2
02:40 45.7 °F 44.6 °F 30.44 in NW 4.0 mph 4.0 mph 96 % 0.00 in 0 W/m2
02:45 45.8 °F 44.7 °F 30.44 in NW 3.0 mph 5.0 mph 96 % 0.00 in 0 W/m2
02:50 45.9 °F 44.8 °F 30.44 in NW 3.0 mph 3.0 mph 96 % 0.00 in 0 W/m2
02:55 45.9 °F 44.5 °F 30.44 in NW 3.0 mph 5.0 mph 95 % 0.00 in 0 W/m2
03:00 45.9 °F 44.5 °F 30.44 in WNW 3.0 mph 5.0 mph 95 % 0.00 in 0 W/m2
03:10 46.0 °F 44.6 °F 30.44 in WNW 4.0 mph 7.0 mph 95 % 0.00 in 0 W/m2
03:15 46.0 °F 44.6 °F 30.44 in NW 5.0 mph 7.0 mph 95 % 0.00 in 0 W/m2
03:20 46.1 °F 44.7 °F 30.44 in NW 5.0 mph 6.0 mph 95 % 0.00 in 0 W/m2
03:25 46.1 °F 44.7 °F 30.44 in WNW 4.0 mph 6.0 mph 95 % 0.00 in 0 W/m2
03:30 46.1 °F 44.5 °F 30.44 in WNW 4.0 mph 7.0 mph 94 % 0.00 in 0 W/m2
03:35 46.1 °F 44.5 °F 30.44 in NW 6.0 mph 7.0 mph 94 % 0.00 in 0 W/m2
03:45 46.2 °F 44.6 °F 30.44 in WNW 6.0 mph 7.0 mph 94 % 0.00 in 0 W/m2
03:50 46.2 °F 44.3 °F 30.44 in NW 6.0 mph 7.0 mph 93 % 0.00 in 0 W/m2
03:55 46.3 °F 44.4 °F 30.44 in NW 7.0 mph 8.0 mph 93 % 0.00 in 0 W/m2
04:00 46.4 °F 44.5 °F 30.44 in WNW 6.0 mph 6.0 mph 93 % 0.00 in 0 W/m2
04:05 46.4 °F 44.2 °F 30.44 in WNW 5.0 mph 6.0 mph 92 % 0.00 in 0 W/m2
04:10 46.3 °F 44.1 °F 30.44 in WNW 4.0 mph 4.0 mph 92 % 0.00 in 0 W/m2
04:20 46.1 °F 43.9 °F 30.44 in WNW 1.0 mph 1.0 mph 92 % 0.00 in 0 W/m2
04:25 46.0 °F 43.8 °F 30.44 in Calm   5.0 mph 92 % 0.00 in 0 W/m2
04:30 45.9 °F 43.7 °F 30.44 in Calm   5.0 mph 92 % 0.00 in 0 W/m2
04:35 45.7 °F 43.5 °F 30.44 in Calm   5.0 mph 92 % 0.00 in 0 W/m2
04:40 45.5 °F 43.3 °F 30.43 in Calm   5.0 mph 92 % 0.00 in 0 W/m2
04:45 45.2 °F 42.7 °F 30.43 in Calm   5.0 mph 91 % 0.00 in 0 W/m2
04:55 44.6 °F 42.1 °F 30.43 in Calm   5.0 mph 91 % 0.00 in 0 W/m2
05:00 44.3 °F 41.8 °F 30.44 in Calm   5.0 mph 91 % 0.00 in 0 W/m2
05:05 43.9 °F 41.4 °F 30.44 in Calm   5.0 mph 91 % 0.00 in 0 W/m2
05:10 43.7 °F 41.5 °F 30.44 in Calm   5.0 mph 92 % 0.00 in 0 W/m2
05:15 43.5 °F 41.3 °F 30.43 in Calm   5.0 mph 92 % 0.00 in 0 W/m2
05:20 43.3 °F 41.1 °F 30.43 in WNW 2.0 mph 5.0 mph 92 % 0.00 in 0 W/m2
05:30 42.9 °F 40.7 °F 30.44 in WNW 2.0 mph 2.0 mph 92 % 0.00 in 0 W/m2
05:35 42.7 °F 40.5 °F 30.44 in WNW 1.0 mph 5.0 mph 92 % 0.00 in 0 W/m2
05:40 42.3 °F 40.1 °F 30.44 in Calm   5.0 mph 92 % 0.00 in 0 W/m2
05:45 42.0 °F 39.8 °F 30.44 in Calm   5.0 mph 92 % 0.00 in 0 W/m2
05:50 41.6 °F 39.4 °F 30.44 in Calm   5.0 mph 92 % 0.00 in 0 W/m2
05:55 41.3 °F 39.2 °F 30.44 in Calm   5.0 mph 92 % 0.00 in 0 W/m2
06:00 41.1 °F 39.2 °F 30.44 in Calm   5.0 mph 93 % 0.00 in 0 W/m2
06:10 41.2 °F 39.6 °F 30.44 in Calm   5.0 mph 94 % 0.00 in 0 W/m2
06:15 41.5 °F 40.2 °F 30.45 in Calm   5.0 mph 95 % 0.00 in 0 W/m2
06:20 41.9 °F 40.6 °F 30.45 in WNW 1.0 mph 5.0 mph 95 % 0.00 in 0 W/m2
06:25 42.1 °F 40.8 °F 30.45 in WNW 2.0 mph 5.0 mph 95 % 0.00 in 0 W/m2
06:30 42.0 °F 40.4 °F 30.45 in WNW 1.0 mph 1.0 mph 94 % 0.00 in 0 W/m2
06:35 41.8 °F 40.2 °F 30.45 in Calm   5.0 mph 94 % 0.00 in 0 W/m2
06:45 41.5 °F 39.9 °F 30.45 in Calm   5.0 mph 94 % 0.00 in 0 W/m2
06:50 41.4 °F 39.8 °F 30.45 in Calm   5.0 mph 94 % 0.00 in 0 W/m2
06:55 41.4 °F 39.8 °F 30.45 in Calm   5.0 mph 94 % 0.00 in 0 W/m2
07:00 41.4 °F 40.1 °F 30.46 in Calm   5.0 mph 95 % 0.00 in 0 W/m2
07:05 41.5 °F 40.2 °F 30.45 in Calm   5.0 mph 95 % 0.00 in 0 W/m2
07:10 41.8 °F 40.5 °F 30.46 in NE 2.0 mph 2.0 mph 95 % 0.00 in 0 W/m2
07:15 42.0 °F 40.7 °F 30.46 in NE 3.0 mph 3.0 mph 95 % 0.00 in 0 W/m2
07:20 42.4 °F 41.1 °F 30.46 in NE 2.0 mph 2.0 mph 95 % 0.00 in 0 W/m2
07:30 42.5 °F 41.2 °F 30.46 in Calm   5.0 mph 95 % 0.00 in 0 W/m2
07:35 42.4 °F 40.8 °F 30.46 in Calm   5.0 mph 94 % 0.00 in 0 W/m2
07:40 42.1 °F 40.5 °F 30.46 in Calm   5.0 mph 94 % 0.00 in 0 W/m2
07:45 41.9 °F 40.3 °F 30.46 in Calm   5.0 mph 94 % 0.00 in 0 W/m2
07:50 41.7 °F 40.1 °F 30.46 in Calm   5.0 mph 94 % 0.00 in 0 W/m2
07:55 41.5 °F 39.9 °F 30.46 in Calm   5.0 mph 94 % 0.00 in 0 W/m2
08:00 41.5 °F 40.2 °F 30.46 in Calm   5.0 mph 95 % 0.00 in 0 W/m2
08:05 41.4 °F 40.1 °F 30.46 in Calm   5.0 mph 95 % 0.00 in 0 W/m2
08:10 41.1 °F 39.5 °F 30.46 in Calm   5.0 mph 94 % 0.00 in 0 W/m2
08:15 40.9 °F 39.3 °F 30.46 in Calm   5.0 mph 94 % 0.00 in 0 W/m2
08:25 40.8 °F 39.5 °F 30.46 in Calm   5.0 mph 95 % 0.00 in 5 W/m2
08:30 41.0 °F 39.7 °F 30.46 in Calm   5.0 mph 95 % 0.00 in 7 W/m2
08:35 41.2 °F 39.9 °F 30.47 in Calm   5.0 mph 95 % 0.00 in 9 W/m2
08:40 41.0 °F 39.7 °F 30.47 in Calm   5.0 mph 95 % 0.00 in 11 W/m2
08:45 40.8 °F 39.5 °F 30.47 in Calm   5.0 mph 95 % 0.00 in 9 W/m2
08:55 41.0 °F 39.7 °F 30.47 in NE 1.0 mph 5.0 mph 95 % 0.00 in 18 W/m2
09:00 41.1 °F 40.0 °F 30.47 in Calm   5.0 mph 96 % 0.00 in 21 W/m2
09:05 41.2 °F 40.1 °F 30.47 in Calm   5.0 mph 96 % 0.00 in 19 W/m2
09:10 41.5 °F 40.4 °F 30.47 in Calm   5.0 mph 96 % 0.00 in 19 W/m2
09:20 42.1 °F 41.3 °F 30.47 in Calm   5.0 mph 97 % 0.00 in 16 W/m2
09:25 42.5 °F 41.7 °F 30.47 in Calm   5.0 mph 97 % 0.00 in 18 W/m2
09:30 42.7 °F 41.9 °F 30.47 in Calm   5.0 mph 97 % 0.00 in 18 W/m2
09:35 42.9 °F 42.1 °F 30.47 in Calm   5.0 mph 97 % 0.00 in 21 W/m2
09:40 42.9 °F 42.1 °F 30.47 in Calm   5.0 mph 97 % 0.00 in 23 W/m2
09:45 43.1 °F 42.3 °F 30.47 in Calm   5.0 mph 97 % 0.00 in 28 W/m2
09:55 42.9 °F 41.8 °F 30.47 in Calm   5.0 mph 96 % 0.00 in 33 W/m2
10:00 42.6 °F 41.5 °F 30.48 in Calm   5.0 mph 96 % 0.00 in 32 W/m2
10:05 42.5 °F 41.4 °F 30.48 in Calm   5.0 mph 96 % 0.00 in 30 W/m2
10:10 42.6 °F 41.5 °F 30.48 in Calm   5.0 mph 96 % 0.00 in 33 W/m2
10:15 42.6 °F 41.5 °F 30.48 in Calm   5.0 mph 96 % 0.00 in 39 W/m2
10:20 42.5 °F 41.4 °F 30.47 in Calm   5.0 mph 96 % 0.00 in 40 W/m2
10:30 42.7 °F 41.6 °F 30.48 in Calm   5.0 mph 96 % 0.00 in 40 W/m2
10:35 42.8 °F 41.7 °F 30.48 in Calm   5.0 mph 96 % 0.00 in 39 W/m2
10:40 43.0 °F 42.2 °F 30.48 in Calm   5.0 mph 97 % 0.00 in 37 W/m2
10:45 43.1 °F 42.3 °F 30.48 in Calm   5.0 mph 97 % 0.00 in 42 W/m2
10:50 43.1 °F 42.0 °F 30.48 in Calm   5.0 mph 96 % 0.00 in 44 W/m2
10:55 43.2 °F 42.1 °F 30.48 in Calm   5.0 mph 96 % 0.00 in 42 W/m2
11:00 43.5 °F 42.7 °F 30.48 in Calm   5.0 mph 97 % 0.00 in 44 W/m2
11:05 43.7 °F 42.9 °F 30.48 in Calm   5.0 mph 97 % 0.00 in 44 W/m2
11:10 44.0 °F 43.2 °F 30.48 in Calm   5.0 mph 97 % 0.00 in 47 W/m2
11:20 44.1 °F 43.0 °F 30.47 in Calm   5.0 mph 96 % 0.00 in 58 W/m2
11:25 44.1 °F 43.3 °F 30.47 in Calm   5.0 mph 97 % 0.00 in 62 W/m2
11:30 44.2 °F 43.4 °F 30.47 in Calm   5.0 mph 97 % 0.00 in 60 W/m2
11:35 44.4 °F 43.6 °F 30.47 in Calm   5.0 mph 97 % 0.00 in 62 W/m2
11:40 44.7 °F 43.9 °F 30.47 in Calm   5.0 mph 97 % 0.00 in 65 W/m2
11:45 45.0 °F 44.2 °F 30.47 in Calm   5.0 mph 97 % 0.00 in 56 W/m2
11:55 45.3 °F 44.5 °F 30.46 in Calm   5.0 mph 97 % 0.00 in 69 W/m2
12:00 45.5 °F 44.7 °F 30.46 in Calm   5.0 mph 97 % 0.00 in 69 W/m2
12:10 45.8 °F 45.0 °F 30.45 in Calm   5.0 mph 97 % 0.00 in 72 W/m2
12:15 45.8 °F 44.7 °F 30.45 in Calm   5.0 mph 96 % 0.00 in 72 W/m2
12:20 46.0 °F 45.2 °F 30.45 in Calm   5.0 mph 97 % 0.00 in 72 W/m2
12:25 46.2 °F 45.4 °F 30.45 in Calm   5.0 mph 97 % 0.00 in 84 W/m2
12:30 46.4 °F 45.6 °F 30.45 in Calm   5.0 mph 97 % 0.00 in 81 W/m2
12:40 47.0 °F 46.2 °F 30.44 in Calm   5.0 mph 97 % 0.00 in 69 W/m2
12:45 47.1 °F 46.3 °F 30.44 in Calm   5.0 mph 97 % 0.00 in 65 W/m2
12:50 47.2 °F 46.1 °F 30.44 in Calm   5.0 mph 96 % 0.00 in 62 W/m2
12:55 47.3 °F 46.2 °F 30.44 in Calm   5.0 mph 96 % 0.00 in 53 W/m2
13:00 47.4 °F 46.3 °F 30.44 in Calm   5.0 mph 96 % 0.00 in 49 W/m2
13:05 47.5 °F 46.4 °F 30.44 in West 1.0 mph 5.0 mph 96 % 0.00 in 39 W/m2
13:10 47.6 °F 46.5 °F 30.44 in West 2.0 mph 5.0 mph 96 % 0.00 in 60 W/m2
14:45 48.3 °F 46.7 °F 30.43 in Calm   5.0 mph 94 % 0.00 in 62 W/m2
14:50 48.4 °F 46.8 °F 30.43 in Calm   5.0 mph 94 % 0.00 in 65 W/m2
14:55 48.5 °F 46.9 °F 30.43 in Calm   5.0 mph 94 % 0.00 in 65 W/m2
15:00 48.6 °F 47.0 °F 30.42 in WSW 1.0 mph 5.0 mph 94 % 0.00 in 54 W/m2
15:05 48.5 °F 46.9 °F 30.42 in WSW 2.0 mph 5.0 mph 94 % 0.00 in 56 W/m2
15:10 48.3 °F 46.4 °F 30.42 in West 3.0 mph 5.0 mph 93 % 0.00 in 42 W/m2
15:20 48.1 °F 45.6 °F 30.42 in West 6.0 mph 6.0 mph 91 % 0.00 in 30 W/m2
15:25 48.0 °F 45.5 °F 30.42 in WSW 6.0 mph 6.0 mph 91 % 0.00 in 33 W/m2
15:30 48.0 °F 45.5 °F 30.42 in WSW 5.0 mph 5.0 mph 91 % 0.00 in 25 W/m2
15:35 48.0 °F 45.2 °F 30.42 in WSW 4.0 mph 5.0 mph 90 % 0.00 in 19 W/m2
15:40 48.0 °F 45.2 °F 30.42 in WSW 5.0 mph 5.0 mph 90 % 0.00 in 14 W/m2
15:45 47.9 °F 45.1 °F 30.42 in WSW 4.0 mph 5.0 mph 90 % 0.00 in 12 W/m2
15:55 47.7 °F 45.2 °F 30.42 in West 4.0 mph 5.0 mph 91 % 0.00 in 9 W/m2
16:00 47.7 °F 45.2 °F 30.42 in West 4.0 mph 9.0 mph 91 % 0.00 in 9 W/m2
16:05 47.6 °F 45.1 °F 30.42 in West 5.0 mph 9.0 mph 91 % 0.00 in 5 W/m2
16:10 47.5 °F 45.0 °F 30.42 in WSW 5.0 mph 5.0 mph 91 % 0.00 in 0 W/m2
16:15 47.5 °F 45.0 °F 30.41 in WSW 5.0 mph 6.0 mph 91 % 0.00 in 0 W/m2
16:20 47.5 °F 45.0 °F 30.42 in WSW 4.0 mph 5.0 mph 91 % 0.00 in 0 W/m2
16:30 47.4 °F 44.9 °F 30.41 in WSW 3.0 mph 3.0 mph 91 % 0.00 in 0 W/m2
16:35 47.3 °F 44.8 °F 30.41 in WSW 2.0 mph 5.0 mph 91 % 0.00 in 0 W/m2
16:40 47.2 °F 44.7 °F 30.41 in WSW 2.0 mph 5.0 mph 91 % 0.00 in 0 W/m2
16:45 47.1 °F 44.6 °F 30.41 in WSW 3.0 mph 5.0 mph 91 % 0.00 in 0 W/m2
16:55 46.9 °F 44.4 °F 30.41 in WSW 2.0 mph 5.0 mph 91 % 0.00 in 0 W/m2
17:00 46.8 °F 44.3 °F 30.41 in Calm   5.0 mph 91 % 0.00 in 0 W/m2
17:05 46.7 °F 44.2 °F 30.41 in Calm   5.0 mph 91 % 0.00 in 0 W/m2
17:10 46.5 °F 44.0 °F 30.41 in Calm   5.0 mph 91 % 0.00 in 0 W/m2
17:15 46.4 °F 43.9 °F 30.41 in Calm   5.0 mph 91 % 0.00 in 0 W/m2
17:20 46.2 °F 43.7 °F 30.41 in Calm   5.0 mph 91 % 0.00 in 0 W/m2
17:30 45.9 °F 43.7 °F 30.41 in Calm   5.0 mph 92 % 0.00 in 0 W/m2
17:35 45.8 °F 43.6 °F 30.41 in Calm   5.0 mph 92 % 0.00 in 0 W/m2
17:40 45.6 °F 43.4 °F 30.41 in Calm   5.0 mph 92 % 0.00 in 0 W/m2
17:45 45.5 °F 43.3 °F 30.41 in Calm   5.0 mph 92 % 0.00 in 0 W/m2
17:55 45.4 °F 43.5 °F 30.40 in Calm   5.0 mph 93 % 0.00 in 0 W/m2
18:05 45.4 °F 43.5 °F 30.40 in Calm   5.0 mph 93 % 0.00 in 0 W/m2
18:10 45.4 °F 43.5 °F 30.40 in Calm   5.0 mph 93 % 0.00 in 0 W/m2
18:15 45.4 °F 43.5 °F 30.39 in Calm   5.0 mph 93 % 0.00 in 0 W/m2
18:20 45.4 °F 43.8 °F 30.39 in Calm   5.0 mph 94 % 0.00 in 0 W/m2
18:25 45.4 °F 43.8 °F 30.39 in Calm   5.0 mph 94 % 0.00 in 0 W/m2
18:30 45.5 °F 43.9 °F 30.39 in WSW 1.0 mph 5.0 mph 94 % 0.00 in 0 W/m2
18:40 45.5 °F 43.9 °F 30.39 in Calm   5.0 mph 94 % 0.00 in 0 W/m2
18:45 45.5 °F 43.9 °F 30.39 in Calm   5.0 mph 94 % 0.00 in 0 W/m2
18:50 45.5 °F 43.9 °F 30.39 in Calm   5.0 mph 94 % 0.00 in 0 W/m2
18:55 45.4 °F 43.8 °F 30.39 in Calm   5.0 mph 94 % 0.00 in 0 W/m2
19:00 45.3 °F 43.7 °F 30.39 in Calm   5.0 mph 94 % 0.00 in 0 W/m2
19:05 45.2 °F 43.3 °F 30.39 in Calm   5.0 mph 93 % 0.00 in 0 W/m2
19:15 44.9 °F 43.0 °F 30.38 in Calm   5.0 mph 93 % 0.00 in 0 W/m2
19:20 44.8 °F 43.2 °F 30.38 in WSW 1.0 mph 5.0 mph 94 % 0.00 in 0 W/m2
19:25 44.8 °F 43.2 °F 30.38 in WSW 1.0 mph 5.0 mph 94 % 0.00 in 0 W/m2
19:30 44.8 °F 43.2 °F 30.38 in Calm   5.0 mph 94 % 0.00 in 0 W/m2
19:40 44.7 °F 43.1 °F 30.38 in Calm   5.0 mph 94 % 0.00 in 0 W/m2
19:45 44.6 °F 43.0 °F 30.38 in Calm   5.0 mph 94 % 0.00 in 0 W/m2
19:50 44.4 °F 42.8 °F 30.38 in Calm   5.0 mph 94 % 0.00 in 0 W/m2
19:55 44.0 °F 42.1 °F 30.38 in Calm   5.0 mph 93 % 0.00 in 0 W/m2
20:00 43.7 °F 41.8 °F 30.38 in Calm   5.0 mph 93 % 0.00 in 0 W/m2
20:05 43.4 °F 41.5 °F 30.37 in Calm   5.0 mph 93 % 0.00 in 0 W/m2
20:15 42.9 °F 41.3 °F 30.37 in Calm   5.0 mph 94 % 0.00 in 0 W/m2
20:20 42.7 °F 41.1 °F 30.37 in Calm   5.0 mph 94 % 0.00 in 0 W/m2
20:25 42.6 °F 41.0 °F 30.37 in Calm   5.0 mph 94 % 0.00 in 0 W/m2
20:30 42.7 °F 41.4 °F 30.37 in Calm   5.0 mph 95 % 0.00 in 0 W/m2
20:35 42.7 °F 41.4 °F 30.37 in Calm   5.0 mph 95 % 0.00 in 0 W/m2
20:40 42.8 °F 41.5 °F 30.37 in WSW 1.0 mph 5.0 mph 95 % 0.00 in 0 W/m2
20:50 42.8 °F 41.5 °F 30.37 in Calm   5.0 mph 95 % 0.00 in 0 W/m2
21:00 42.8 °F 41.5 °F 30.36 in Calm   5.0 mph 95 % 0.00 in 0 W/m2
21:05 42.8 °F 41.5 °F 30.36 in Calm   5.0 mph 95 % 0.00 in 0 W/m2
21:10 42.8 °F 41.5 °F 30.36 in Calm   5.0 mph 95 % 0.00 in 0 W/m2
21:20 42.7 °F 41.4 °F 30.36 in Calm   5.0 mph 95 % 0.00 in 0 W/m2
21:25 42.7 °F 41.4 °F 30.36 in Calm   5.0 mph 95 % 0.00 in 0 W/m2
21:30 42.6 °F 41.5 °F 30.36 in Calm   5.0 mph 96 % 0.00 in 0 W/m2
21:35 42.6 °F 41.5 °F 30.36 in Calm   5.0 mph 96 % 0.00 in 0 W/m2
21:40 42.7 °F 41.6 °F 30.36 in Calm   5.0 mph 96 % 0.00 in 0 W/m2
21:45 42.8 °F 41.7 °F 30.36 in Calm   5.0 mph 96 % 0.00 in 0 W/m2
21:55 42.8 °F 41.7 °F 30.35 in Calm   5.0 mph 96 % 0.00 in 0 W/m2
22:00 42.5 °F 41.4 °F 30.35 in Calm   5.0 mph 96 % 0.00 in 0 W/m2
22:05 42.4 °F 41.1 °F 30.35 in Calm   5.0 mph 95 % 0.00 in 0 W/m2
22:10 42.3 °F 41.2 °F 30.34 in Calm   5.0 mph 96 % 0.00 in 0 W/m2
22:15 42.3 °F 41.2 °F 30.34 in Calm   5.0 mph 96 % 0.00 in 0 W/m2
22:20 42.6 °F 41.5 °F 30.34 in Calm   5.0 mph 96 % 0.00 in 0 W/m2
22:30 43.3 °F 42.2 °F 30.33 in Calm   5.0 mph 96 % 0.00 in 0 W/m2
22:35 43.4 °F 42.3 °F 30.33 in Calm   5.0 mph 96 % 0.00 in 0 W/m2
22:40 43.7 °F 42.9 °F 30.32 in Calm   5.0 mph 97 % 0.00 in 0 W/m2
22:45 43.8 °F 42.7 °F 30.32 in Calm   5.0 mph 96 % 0.00 in 0 W/m2
22:50 43.8 °F 42.7 °F 30.32 in Calm   5.0 mph 96 % 0.00 in 0 W/m2
22:55 43.8 °F 42.7 °F 30.32 in Calm   5.0 mph 96 % 0.00 in 0 W/m2
23:05 43.8 °F 42.7 °F 30.31 in Calm   5.0 mph 96 % 0.00 in 0 W/m2
23:10 43.9 °F 42.8 °F 30.31 in Calm   5.0 mph 96 % 0.00 in 0 W/m2
23:15 43.9 °F 42.8 °F 30.31 in Calm   5.0 mph 96 % 0.00 in 0 W/m2
23:20 43.9 °F 42.8 °F 30.31 in Calm   5.0 mph 96 % 0.00 in 0 W/m2
23:25 43.9 °F 42.8 °F 30.31 in Calm   5.0 mph 96 % 0.00 in 0 W/m2
23:30 43.8 °F 42.7 °F 30.30 in Calm   5.0 mph 96 % 0.00 in 0 W/m2
23:40 43.4 °F 42.1 °F 30.29 in Calm   5.0 mph 95 % 0.00 in 0 W/m2
23:45 43.1 °F 41.8 °F 30.29 in Calm   5.0 mph 95 % 0.00 in 0 W/m2
23:50 43.1 °F 42.0 °F 30.29 in Calm   5.0 mph 96 % 0.00 in 0 W/m2
23:55 43.1 °F 42.0 °F 30.29 in WSW 1.0 mph 5.0 mph 96 % 0.00 in 0 W/m2
Delerius-Weather
Compliments of Weather Underground - 2 mb

Data updates at regular intervals.